createdAt,value
2018-10-12T00:01:00.595Z,97482.19
2018-10-12T00:03:29.299Z,97475.95
2018-10-12T00:05:58.239Z,97484.81
2018-10-12T00:08:26.812Z,97482.45
2018-10-12T00:10:56.794Z,97487.84
2018-10-12T00:13:25.824Z,97493.83
2018-10-12T00:15:54.395Z,97501.90
2018-10-12T00:18:23.808Z,97498.56
2018-10-12T00:20:52.683Z,97501.13
2018-10-12T00:23:21.291Z,97503.06
2018-10-12T00:25:49.893Z,97501.47
2018-10-12T00:28:18.668Z,97498.25
2018-10-12T00:30:47.331Z,97494.94
2018-10-12T00:33:16.032Z,97494.80
2018-10-12T00:35:44.834Z,97496.54
2018-10-12T00:38:13.418Z,97493.34
2018-10-12T00:40:42.248Z,97487.64
2018-10-12T00:43:10.929Z,97490.20
2018-10-12T00:45:39.639Z,97493.30
2018-10-12T00:48:08.700Z,97496.06
2018-10-12T00:50:37.276Z,97497.94
2018-10-12T00:53:05.933Z,97509.34
2018-10-12T00:55:35.228Z,97514.59
2018-10-12T00:58:03.808Z,97513.09
2018-10-12T01:00:32.400Z,97517.22
2018-10-12T01:03:01.096Z,97519.39
2018-10-12T01:05:30.087Z,97518.69
2018-10-12T01:07:59.676Z,97530.66
2018-10-12T01:10:28.503Z,97534.02
2018-10-12T01:12:57.117Z,97535.47
2018-10-12T01:15:25.721Z,97544.27
2018-10-12T01:17:54.699Z,97536.75
2018-10-12T01:20:23.327Z,97534.34
2018-10-12T01:22:52.084Z,97538.67
2018-10-12T01:25:20.776Z,97543.69
2018-10-12T01:27:49.404Z,97542.86
2018-10-12T01:30:18.042Z,97547.27
2018-10-12T01:32:52.079Z,97551.58
2018-10-12T01:35:20.671Z,97549.66
2018-10-12T01:37:49.239Z,97552.72
2018-10-12T01:40:18.378Z,97546.77
2018-10-12T01:42:46.960Z,97550.02
2018-10-12T01:45:15.543Z,97562.65
2018-10-12T01:47:44.175Z,97567.59
2018-10-12T01:50:12.755Z,97562.35
2018-10-12T01:52:41.675Z,97561.45
2018-10-12T01:55:10.619Z,97570.98
2018-10-12T01:57:39.314Z,97573.73
2018-10-12T02:00:08.796Z,97570.15
2018-10-12T02:02:37.876Z,97575.00
2018-10-12T02:05:06.863Z,97574.10
2018-10-12T02:07:36.172Z,97576.84
2018-10-12T02:10:04.968Z,97584.72
2018-10-12T02:12:33.559Z,97580.69
2018-10-12T02:15:02.140Z,97583.35
2018-10-12T02:17:30.925Z,97585.27
2018-10-12T02:19:59.520Z,97588.02
2018-10-12T02:22:28.144Z,97587.75
2018-10-12T02:24:56.803Z,97596.81
2018-10-12T02:27:25.424Z,97593.77
2018-10-12T02:29:54.033Z,97599.56
2018-10-12T02:32:22.721Z,97599.81
2018-10-12T02:34:51.324Z,97605.50
2018-10-12T02:37:20.292Z,97601.73
2018-10-12T02:39:48.947Z,97615.36
2018-10-12T02:42:17.563Z,97611.33
2018-10-12T02:44:46.144Z,97610.15
2018-10-12T02:47:14.871Z,97613.88
2018-10-12T02:49:43.448Z,97607.03
2018-10-12T02:52:12.021Z,97620.77
2018-10-12T02:54:41.220Z,97624.79
2018-10-12T02:57:10.280Z,97631.82
2018-10-12T02:59:38.855Z,97630.61
2018-10-12T03:02:07.755Z,97637.85
2018-10-12T03:04:36.353Z,97639.30
2018-10-12T03:07:04.979Z,97637.85
2018-10-12T03:09:33.887Z,97643.77
2018-10-12T03:12:02.492Z,97643.59
2018-10-12T03:14:31.453Z,97646.23
2018-10-12T03:17:00.548Z,97655.19
2018-10-12T03:19:29.168Z,97650.97
2018-10-12T03:21:58.154Z,97655.09
2018-10-12T03:24:26.770Z,97660.37
2018-10-12T03:26:55.360Z,97661.28
2018-10-12T03:29:24.795Z,97671.52
2018-10-12T03:31:53.447Z,97668.16
2018-10-12T03:34:22.140Z,97665.67
2018-10-12T03:36:51.213Z,97668.16
2018-10-12T03:39:20.059Z,97668.89
2018-10-12T03:41:48.699Z,97667.81
2018-10-12T03:44:17.300Z,97665.16
2018-10-12T03:46:46.443Z,97671.10
2018-10-12T03:49:15.396Z,97669.09
2018-10-12T03:51:44.370Z,97664.98
2018-10-12T03:54:13.376Z,97682.24
2018-10-12T03:56:42.008Z,97675.25
2018-10-12T03:59:10.824Z,97675.36
2018-10-12T04:01:39.525Z,97678.05
2018-10-12T04:04:08.142Z,97682.06
2018-10-12T04:06:36.713Z,97687.36
2018-10-12T04:09:07.187Z,97689.91
2018-10-12T04:11:35.801Z,97692.47
2018-10-12T04:14:04.430Z,97694.58
2018-10-12T04:16:33.143Z,97697.59
2018-10-12T04:19:01.871Z,97708.73
2018-10-12T04:21:30.951Z,97708.89
2018-10-12T04:23:59.572Z,97720.06
2018-10-12T04:26:28.168Z,97718.61
2018-10-12T04:28:56.769Z,97723.52
2018-10-12T04:31:25.413Z,97721.13
2018-10-12T04:33:54.173Z,97717.17
2018-10-12T04:36:22.850Z,97726.79
2018-10-12T04:39:02.664Z,97725.41
2018-10-12T04:41:32.451Z,97731.19
2018-10-12T04:44:02.564Z,97728.47
2018-10-12T04:46:36.645Z,97743.44
2018-10-12T04:49:07.312Z,97746.27
2018-10-12T04:51:40.795Z,97744.03
2018-10-12T04:54:09.587Z,97745.03
2018-10-12T04:56:38.192Z,97755.05
2018-10-12T04:59:07.212Z,97756.77
2018-10-12T05:01:36.171Z,97757.25
2018-10-12T05:04:05.220Z,97762.37
2018-10-12T05:06:33.820Z,97758.05
2018-10-12T05:09:02.651Z,97768.83
2018-10-12T05:11:31.228Z,97778.20
2018-10-12T05:13:59.820Z,97775.27
2018-10-12T05:16:28.552Z,97778.88
2018-10-12T05:18:57.152Z,97783.27
2018-10-12T05:21:25.756Z,97786.66
2018-10-12T05:23:54.483Z,97791.19
2018-10-12T05:26:23.080Z,97792.91
2018-10-12T05:28:51.661Z,97795.98
2018-10-12T05:31:20.326Z,97805.03
2018-10-12T05:33:49.288Z,97810.88
2018-10-12T05:36:17.863Z,97808.77
2018-10-12T05:38:46.671Z,97818.80
2018-10-12T05:41:15.297Z,97812.57
2018-10-12T05:43:43.983Z,97810.91
2018-10-12T05:46:12.519Z,97814.06
2018-10-12T05:48:52.879Z,97826.95
2018-10-12T05:51:21.818Z,97831.77
2018-10-12T05:53:51.575Z,97829.27
2018-10-12T05:56:25.380Z,97835.80
2018-10-12T05:58:54.446Z,97844.24
2018-10-12T06:01:23.059Z,97839.58
2018-10-12T06:03:51.758Z,97842.58
2018-10-12T06:06:20.543Z,97845.52
2018-10-12T06:08:49.431Z,97843.61
2018-10-12T06:11:18.179Z,97851.45
2018-10-12T06:13:46.747Z,97859.02
2018-10-12T06:16:15.367Z,97860.39
2018-10-12T06:18:44.464Z,97860.69
2018-10-12T06:21:13.126Z,97858.34
2018-10-12T06:23:42.064Z,97864.67
2018-10-12T06:26:10.775Z,97873.34
2018-10-12T06:28:39.380Z,97869.41
2018-10-12T06:31:09.020Z,97873.38
2018-10-12T06:33:38.328Z,97876.52
2018-10-12T06:36:07.326Z,97882.83
2018-10-12T06:38:35.904Z,97879.67
2018-10-12T06:41:04.722Z,97878.07
2018-10-12T06:43:33.680Z,97876.83
2018-10-12T06:46:02.291Z,97875.86
2018-10-12T06:48:30.900Z,97881.40
2018-10-12T06:50:59.501Z,97878.45
2018-10-12T06:53:28.084Z,97889.30
2018-10-12T06:55:56.959Z,97896.39
2018-10-12T06:58:25.556Z,97898.08
2018-10-12T07:00:54.148Z,97906.55
2018-10-12T07:03:23.064Z,97903.11
2018-10-12T07:05:51.440Z,97909.07
2018-10-12T07:08:20.008Z,97910.84
2018-10-12T07:10:48.659Z,97916.89
2018-10-12T07:13:17.799Z,97922.31
2018-10-12T07:15:46.839Z,97932.16
2018-10-12T07:18:15.432Z,97929.95
2018-10-12T07:20:45.232Z,97926.78
2018-10-12T07:23:13.812Z,97928.05
2018-10-12T07:25:42.428Z,97923.73
2018-10-12T07:28:10.992Z,97921.69
2018-10-12T07:30:39.712Z,97919.05
2018-10-12T07:33:08.741Z,97922.91
2018-10-12T07:35:37.356Z,97922.47
2018-10-12T07:38:05.944Z,97935.06
2018-10-12T07:40:34.940Z,97926.95
2018-10-12T07:43:03.568Z,97944.23
2018-10-12T07:45:32.142Z,97948.20
2018-10-12T07:48:00.865Z,97946.58
2018-10-12T07:50:29.480Z,97947.60
2018-10-12T07:52:58.063Z,97944.83
2018-10-12T07:55:27.016Z,97945.34
2018-10-12T07:57:55.596Z,97950.89
2018-10-12T08:00:24.284Z,97943.07
2018-10-12T08:02:52.955Z,97941.61
2018-10-12T08:05:22.460Z,97945.19
2018-10-12T08:07:51.615Z,97945.14
2018-10-12T08:10:20.253Z,97953.02
2018-10-12T08:12:48.876Z,97942.91
2018-10-12T08:15:17.552Z,97949.91
2018-10-12T08:17:46.334Z,97947.66
2018-10-12T08:20:15.060Z,97946.91
2018-10-12T08:22:43.636Z,97943.42
2018-10-12T08:25:12.316Z,97948.39
2018-10-12T08:27:40.924Z,97938.08
2018-10-12T08:30:09.561Z,97943.36
2018-10-12T08:32:38.403Z,97949.32
2018-10-12T08:35:07.173Z,97951.77
2018-10-12T08:37:35.772Z,97947.85
2018-10-12T08:40:04.540Z,97944.63
2018-10-12T08:42:33.126Z,97943.96
2018-10-12T08:45:01.743Z,97948.61
2018-10-12T08:47:30.763Z,97938.07
2018-10-12T08:49:59.332Z,97946.41
2018-10-12T08:52:28.262Z,97949.17
2018-10-12T08:54:56.865Z,97951.55
2018-10-12T08:57:25.473Z,97958.09
2018-10-12T08:59:54.083Z,97957.47
2018-10-12T09:02:22.707Z,97963.32
2018-10-12T09:04:51.297Z,97957.97
2018-10-12T09:07:20.434Z,97957.59
2018-10-12T09:09:50.029Z,97960.55
2018-10-12T09:12:18.614Z,97962.72
2018-10-12T09:14:47.588Z,97967.69
2018-10-12T09:17:16.382Z,97971.50
2018-10-12T09:19:45.028Z,97969.11
2018-10-12T09:22:13.592Z,97968.97
2018-10-12T09:24:42.623Z,97965.45
2018-10-12T09:27:11.279Z,97955.11
2018-10-12T09:29:39.943Z,97960.59
2018-10-12T09:32:08.635Z,97956.11
2018-10-12T09:34:37.744Z,97955.91
2018-10-12T09:37:06.352Z,97962.53
2018-10-12T09:39:34.975Z,97959.95
2018-10-12T09:42:03.584Z,97970.55
2018-10-12T09:44:32.254Z,97970.42
2018-10-12T09:47:00.968Z,97967.30
2018-10-12T09:49:29.636Z,97963.17
2018-10-12T09:51:58.247Z,97964.95
2018-10-12T09:54:27.259Z,97968.30
2018-10-12T09:57:01.000Z,97968.90
2018-10-12T09:59:29.712Z,97981.67
2018-10-12T10:02:03.629Z,97975.77
2018-10-12T10:04:33.886Z,97975.77
2018-10-12T10:07:03.802Z,97976.56
2018-10-12T10:09:32.447Z,97969.72
2018-10-12T10:12:01.980Z,97964.89
2018-10-12T10:14:30.608Z,97961.47
2018-10-12T10:16:59.211Z,97963.48
2018-10-12T10:19:27.924Z,97960.55
2018-10-12T10:21:56.545Z,97954.62
2018-10-12T10:24:26.400Z,97962.64
2018-10-12T10:26:55.099Z,97964.58
2018-10-12T10:29:23.778Z,97965.94
2018-10-12T10:31:52.284Z,97972.34
2018-10-12T10:34:20.885Z,97970.46
2018-10-12T10:36:49.485Z,97964.72
2018-10-12T10:39:18.051Z,97965.52
2018-10-12T10:41:46.652Z,97967.72
2018-10-12T10:44:15.268Z,97967.08
2018-10-12T10:46:43.880Z,97969.18
2018-10-12T10:49:12.515Z,97967.16
2018-10-12T10:51:41.495Z,97965.79
2018-10-12T10:54:10.106Z,97958.19
2018-10-12T10:56:38.971Z,97957.36
2018-10-12T10:59:08.635Z,97951.56
2018-10-12T11:01:37.215Z,97957.89
2018-10-12T11:04:06.297Z,97950.37
2018-10-12T11:06:35.275Z,97945.36
2018-10-12T11:09:05.057Z,97946.02
2018-10-12T11:11:34.152Z,97941.56
2018-10-12T11:14:02.713Z,97939.88
2018-10-12T11:16:31.340Z,97949.61
2018-10-12T11:18:59.977Z,97937.59
2018-10-12T11:21:28.703Z,97941.97
2018-10-12T11:23:57.290Z,97936.95
2018-10-12T11:26:25.975Z,97939.22
2018-10-12T11:28:54.884Z,97936.08
2018-10-12T11:31:23.450Z,97926.99
2018-10-12T11:33:53.008Z,97931.77
2018-10-12T11:36:21.715Z,97927.56
2018-10-12T11:38:50.604Z,97926.13
2018-10-12T11:41:19.303Z,97926.70
2018-10-12T11:43:47.892Z,97928.83
2018-10-12T11:46:16.483Z,97925.66
2018-10-12T11:48:45.085Z,97924.41
2018-10-12T11:51:13.680Z,97915.72
2018-10-12T11:53:42.272Z,97920.89
2018-10-12T11:56:10.925Z,97918.21
2018-10-12T11:58:39.536Z,97911.81
2018-10-12T12:01:08.414Z,97909.38
2018-10-12T12:03:37.080Z,97908.64
2018-10-12T12:06:05.701Z,97907.69
2018-10-12T12:08:34.637Z,97909.98
2018-10-12T12:11:03.749Z,97907.23
2018-10-12T12:13:32.371Z,97901.44
2018-10-12T12:16:01.433Z,97904.25
2018-10-12T12:18:30.311Z,97902.64
2018-10-12T12:20:59.794Z,97896.80
2018-10-12T12:23:28.702Z,97905.81
2018-10-12T12:25:57.696Z,97902.45
2018-10-12T12:28:26.462Z,97903.08
2018-10-12T12:30:55.071Z,97891.75
2018-10-12T12:33:24.604Z,97891.53
2018-10-12T12:35:54.288Z,97891.53
2018-10-12T12:38:22.869Z,97892.47
2018-10-12T12:40:51.810Z,97893.77
2018-10-12T12:43:20.445Z,97891.76
2018-10-12T12:45:49.308Z,97885.03
2018-10-12T12:48:18.721Z,97890.19
2018-10-12T12:50:47.323Z,97888.74
2018-10-12T12:53:16.493Z,97888.02
2018-10-12T12:55:45.144Z,97886.55
2018-10-12T12:58:13.755Z,97893.68
2018-10-12T13:00:42.801Z,97890.95
2018-10-12T13:03:11.665Z,97892.52
2018-10-12T13:05:40.617Z,97888.17
2018-10-12T13:08:09.356Z,97886.03
2018-10-12T13:10:38.110Z,97889.00
2018-10-12T13:13:06.900Z,97893.20
2018-10-12T13:15:35.684Z,97892.17
2018-10-12T13:18:04.767Z,97894.84
2018-10-12T13:20:34.319Z,97892.53
2018-10-12T13:23:03.011Z,97891.94
2018-10-12T13:25:31.924Z,97891.19
2018-10-12T13:28:00.964Z,97891.53
2018-10-12T13:30:29.746Z,97893.70
2018-10-12T13:32:59.583Z,97894.36
2018-10-12T13:35:28.184Z,97897.11
2018-10-12T13:37:56.940Z,97892.00
2018-10-12T13:40:26.227Z,97899.20
2018-10-12T13:42:55.129Z,97898.37
2018-10-12T13:45:24.125Z,97894.07
2018-10-12T13:47:53.099Z,97894.91
2018-10-12T13:50:22.348Z,97901.61
2018-10-12T13:52:51.650Z,97904.14
2018-10-12T13:55:21.267Z,97899.09
2018-10-12T13:57:50.383Z,97901.54
2018-10-12T14:00:19.206Z,97893.73
2018-10-12T14:02:48.424Z,97893.13
2018-10-12T14:05:17.345Z,97896.48
2018-10-12T14:07:46.933Z,97888.52
2018-10-12T14:10:16.135Z,97894.55
2018-10-12T14:12:45.568Z,97888.22
2018-10-12T14:15:15.273Z,97880.94
2018-10-12T14:17:44.162Z,97884.17
2018-10-12T14:20:13.144Z,97879.47
2018-10-12T14:22:41.876Z,97880.83
2018-10-12T14:25:10.868Z,97875.91
2018-10-12T14:27:39.451Z,97884.36
2018-10-12T14:30:08.212Z,97877.97
2018-10-12T14:32:36.824Z,97886.51
2018-10-12T14:35:05.879Z,97880.16
2018-10-12T14:37:34.502Z,97883.66
2018-10-12T14:40:03.895Z,97880.48
2018-10-12T14:42:32.929Z,97877.88
2018-10-12T14:45:01.681Z,97880.83
2018-10-12T14:47:30.288Z,97883.61
2018-10-12T14:49:58.881Z,97884.59
2018-10-12T14:52:28.505Z,97885.50
2018-10-12T14:54:57.076Z,97888.05
2018-10-12T14:57:25.684Z,97884.89
2018-10-12T14:59:54.392Z,97888.61
2018-10-12T15:02:23.033Z,97889.93
2018-10-12T15:04:51.637Z,97888.63
2018-10-12T15:07:20.332Z,97892.03
2018-10-12T15:09:48.939Z,97895.05
2018-10-12T15:12:17.583Z,97894.70
2018-10-12T15:14:57.532Z,97896.16
2018-10-12T15:17:26.675Z,97902.13
2018-10-12T15:19:55.306Z,97893.95
2018-10-12T15:22:23.927Z,97898.46
2018-10-12T15:24:52.507Z,97898.23
2018-10-12T15:27:21.102Z,97895.57
2018-10-12T15:29:49.791Z,97900.69
2018-10-12T15:32:18.400Z,97893.58
2018-10-12T15:34:47.003Z,97896.34
2018-10-12T15:37:15.724Z,97898.94
2018-10-12T15:39:44.292Z,97899.35
2018-10-12T15:42:12.919Z,97900.41
2018-10-12T15:44:41.567Z,97895.52
2018-10-12T15:47:11.958Z,97896.16
2018-10-12T15:49:41.043Z,97901.23
2018-10-12T15:52:09.708Z,97899.48
2018-10-12T15:54:38.310Z,97900.33
2018-10-12T15:57:07.000Z,97899.05
2018-10-12T15:59:36.346Z,97896.81
2018-10-12T16:02:04.960Z,97900.45
2018-10-12T16:04:33.939Z,97900.69
2018-10-12T16:07:02.593Z,97898.64
2018-10-12T16:09:31.243Z,97902.91
2018-10-12T16:12:00.386Z,97896.97
2018-10-12T16:14:28.989Z,97908.73
2018-10-12T16:16:57.672Z,97904.72
2018-10-12T16:19:26.303Z,97912.58
2018-10-12T16:21:55.460Z,97909.34
2018-10-12T16:24:24.120Z,97902.73
2018-10-12T16:26:52.804Z,97908.19
2018-10-12T16:29:21.408Z,97908.73
2018-10-12T16:31:49.980Z,97907.18
2018-10-12T16:34:18.675Z,97909.02
2018-10-12T16:36:47.318Z,97902.33
2018-10-12T16:39:15.929Z,97911.62
2018-10-12T16:41:45.465Z,97907.78
2018-10-12T16:44:14.042Z,97911.03
2018-10-12T16:46:42.783Z,97922.41
2018-10-12T16:49:11.471Z,97918.45
2018-10-12T16:51:40.051Z,97920.02
2018-10-12T16:54:08.652Z,97925.46
2018-10-12T16:56:37.358Z,97928.11
2018-10-12T16:59:05.936Z,97925.20
2018-10-12T17:01:34.500Z,97928.06
2018-10-12T17:04:03.230Z,97928.32
2018-10-12T17:06:31.956Z,97930.36
2018-10-12T17:09:00.531Z,97934.64
2018-10-12T17:11:32.327Z,97929.08
2018-10-12T17:14:01.233Z,97934.80
2018-10-12T17:16:29.923Z,97945.48
2018-10-12T17:18:58.729Z,97941.63
2018-10-12T17:21:27.920Z,97948.84
2018-10-12T17:23:56.564Z,97939.80
2018-10-12T17:26:25.196Z,97944.09
2018-10-12T17:28:53.783Z,97953.75
2018-10-12T17:31:22.432Z,97950.11
2018-10-12T17:33:51.888Z,97953.56
2018-10-12T17:36:20.799Z,97957.20
2018-10-12T17:38:50.439Z,97952.83
2018-10-12T17:41:21.210Z,97958.98
2018-10-12T17:43:50.289Z,97959.22
2018-10-12T17:46:19.391Z,97957.67
2018-10-12T17:48:48.705Z,97964.28
2018-10-12T17:51:17.678Z,97962.84
2018-10-12T17:53:46.904Z,97959.68
2018-10-12T17:56:16.180Z,97967.33
2018-10-12T17:58:45.435Z,97972.84
2018-10-12T18:01:14.063Z,97971.45
2018-10-12T18:03:43.476Z,97975.20
2018-10-12T18:06:12.935Z,97984.11
2018-10-12T18:08:42.393Z,97980.42
2018-10-12T18:11:11.902Z,97981.48
2018-10-12T18:13:40.945Z,97980.64
2018-10-12T18:16:10.502Z,97986.27
2018-10-12T18:18:39.215Z,97990.14
2018-10-12T18:21:08.452Z,97989.98
2018-10-12T18:23:37.792Z,97992.10
2018-10-12T18:26:07.244Z,97990.42
2018-10-12T18:28:36.769Z,97986.66
2018-10-12T18:31:06.283Z,97987.42
2018-10-12T18:33:35.674Z,97991.41
2018-10-12T18:36:05.142Z,97995.55
2018-10-12T18:38:34.470Z,97997.28
2018-10-12T18:41:03.857Z,97994.92
2018-10-12T18:43:33.092Z,97987.62
2018-10-12T18:46:02.237Z,97984.13
2018-10-12T18:48:31.332Z,97979.06
2018-10-12T18:51:00.448Z,97980.23
2018-10-12T18:53:29.588Z,97980.70
2018-10-12T18:55:58.582Z,97979.64
2018-10-12T18:58:27.830Z,97986.55
2018-10-12T19:00:57.626Z,97991.23
2018-10-12T19:03:26.412Z,97994.28
2018-10-12T19:05:55.008Z,97999.89
2018-10-12T19:08:23.992Z,98001.19
2018-10-12T19:10:53.336Z,97999.62
2018-10-12T19:13:22.197Z,98009.44
2018-10-12T19:15:51.117Z,98015.55
2018-10-12T19:18:19.720Z,98017.38
2018-10-12T19:20:48.298Z,98011.84
2018-10-12T19:23:16.860Z,98014.42
2018-10-12T19:25:45.600Z,98024.52
2018-10-12T19:28:14.180Z,98025.83
2018-10-12T19:30:42.757Z,98026.06
2018-10-12T19:33:11.442Z,98027.89
2018-10-12T19:35:40.383Z,98034.26
2018-10-12T19:38:09.009Z,98037.30
2018-10-12T19:40:37.588Z,98036.58
2018-10-12T19:43:06.569Z,98040.70
2018-10-12T19:45:35.168Z,98045.68
2018-10-12T19:48:03.792Z,98041.82
2018-10-12T19:50:32.368Z,98045.59
2018-10-12T19:53:01.009Z,98040.44
2018-10-12T19:55:29.760Z,98047.88
2018-10-12T19:57:58.351Z,98045.90
2018-10-12T20:00:26.960Z,98047.52
2018-10-12T20:02:55.652Z,98045.39
2018-10-12T20:05:24.259Z,98046.72
2018-10-12T20:07:52.873Z,98045.33
2018-10-12T20:10:21.601Z,98043.51
2018-10-12T20:12:50.269Z,98047.55
2018-10-12T20:15:19.119Z,98045.81
2018-10-12T20:17:47.874Z,98049.21
2018-10-12T20:20:16.431Z,98052.31
2018-10-12T20:22:45.025Z,98056.30
2018-10-12T20:25:13.752Z,98056.91
2018-10-12T20:27:42.607Z,98059.48
2018-10-12T20:30:11.184Z,98059.59
2018-10-12T20:32:39.868Z,98063.16
2018-10-12T20:35:08.467Z,98060.14
2018-10-12T20:37:37.082Z,98065.63
2018-10-12T20:40:05.767Z,98060.48
2018-10-12T20:42:34.327Z,98061.11
2018-10-12T20:45:03.831Z,98061.95
2018-10-12T20:47:32.824Z,98063.78
2018-10-12T20:50:01.452Z,98067.62
2018-10-12T20:52:30.110Z,98059.91
2018-10-12T20:54:58.863Z,98063.86
2018-10-12T20:57:27.501Z,98062.11
2018-10-12T20:59:56.247Z,98059.36
2018-10-12T21:02:25.248Z,98057.08
2018-10-12T21:04:53.908Z,98059.74
2018-10-12T21:07:22.548Z,98064.65
2018-10-12T21:09:51.875Z,98068.53
2018-10-12T21:12:20.557Z,98064.58
2018-10-12T21:14:49.652Z,98068.15
2018-10-12T21:17:18.372Z,98061.38
2018-10-12T21:19:47.124Z,98063.66
2018-10-12T21:22:15.739Z,98066.44
2018-10-12T21:24:44.377Z,98063.36
2018-10-12T21:27:13.036Z,98072.48
2018-10-12T21:29:41.638Z,98069.71
2018-10-12T21:32:10.272Z,98068.19
2018-10-12T21:34:38.896Z,98060.94
2018-10-12T21:37:07.529Z,98061.29
2018-10-12T21:39:36.408Z,98067.26
2018-10-12T21:42:05.115Z,98065.87
2018-10-12T21:44:33.686Z,98070.52
2018-10-12T21:47:02.372Z,98068.44
2018-10-12T21:49:30.972Z,98064.03
2018-10-12T21:51:59.562Z,98060.19
2018-10-12T21:54:28.530Z,98060.36
2018-10-12T21:56:57.401Z,98061.02
2018-10-12T21:59:26.099Z,98051.58
2018-10-12T22:01:54.802Z,98056.41
2018-10-12T22:04:23.968Z,98058.23
2018-10-12T22:06:52.552Z,98057.69
2018-10-12T22:09:21.211Z,98051.55
2018-10-12T22:11:49.919Z,98048.42
2018-10-12T22:14:18.976Z,98050.57
2018-10-12T22:16:47.909Z,98053.06
2018-10-12T22:19:16.593Z,98048.17
2018-10-12T22:21:45.157Z,98049.29
2018-10-12T22:24:13.856Z,98043.98
2018-10-12T22:26:42.577Z,98045.82
2018-10-12T22:29:11.167Z,98042.87
2018-10-12T22:31:39.847Z,98044.92
2018-10-12T22:34:08.552Z,98042.42
2018-10-12T22:36:37.116Z,98037.73
2018-10-12T22:39:08.128Z,98042.16
2018-10-12T22:41:36.753Z,98034.47
2018-10-12T22:44:05.350Z,98039.64
2018-10-12T22:46:34.204Z,98034.72
2018-10-12T22:49:03.462Z,98032.95
2018-10-12T22:51:32.040Z,98031.84
2018-10-12T22:54:01.140Z,98026.42
2018-10-12T22:56:30.032Z,98027.05
2018-10-12T22:58:58.598Z,98022.64
2018-10-12T23:01:27.237Z,98018.97
2018-10-12T23:03:55.845Z,98018.13
2018-10-12T23:06:24.428Z,98015.19
2018-10-12T23:08:53.696Z,98016.40
2018-10-12T23:11:22.307Z,98012.44
2018-10-12T23:13:52.032Z,98007.83
2018-10-12T23:16:20.716Z,98007.83
2018-10-12T23:18:49.440Z,98006.55
2018-10-12T23:21:18.579Z,98009.09
2018-10-12T23:23:48.029Z,98012.06
2018-10-12T23:26:16.640Z,98008.97
2018-10-12T23:28:45.226Z,98005.22
2018-10-12T23:31:14.639Z,98008.17
2018-10-12T23:33:54.331Z,98008.97
2018-10-12T23:36:23.253Z,98006.67
2018-10-12T23:38:52.004Z,98005.94
2018-10-12T23:41:20.605Z,98006.91
2018-10-12T23:43:49.211Z,98010.56
2018-10-12T23:46:17.805Z,98003.94
2018-10-12T23:48:46.380Z,98006.00
2018-10-12T23:51:15.001Z,97999.12
2018-10-12T23:53:43.570Z,98002.45
2018-10-12T23:56:12.133Z,97998.55
2018-10-12T23:58:40.772Z,97994.97
